Green Forest, Arkansas
Current Conditions -  °F | °C
As of 8:53 PM on Saturday 24 Jan 2015 (Local Time) from KHRO Reporting Station
Clear Clear  
Wind Chill: 46°   Ceiling: Unl
Heat Index: 49°   Visibility: 10mi
Dew Point: 30°   Wind: 7mph
Humidity: 48%   Direction: 250°WSW
Pressure: 29.87"   Gusts: NA
Location:  36.34°N, 93.44°W
Report Text: KHRO 250253Z AUTO 25006KT 10SM CLR 09/M01 A2987 RMK AO2 SLP117 T00941011 58001
Loading
Personal Weather Stations






























Interactive Weather Map New forecast layout! Learn more

10-Day Weather Forecast

Advertisements
Track Severe Weather on mobile